<?xml version="1.0" encoding="UTF-8" standalone="no" ?>
<gpx xmlns="http://www.topografix.com/GPX/1/1" xmlns:xsi="http://www.w3.org/2001/XMLSchema-instance" xsi:schemaLocation="http://www.topografix.com/GPX/1/1 http://www.topografix.com/GPX/1/1/gpx.xsd" version="1.1" creator="VisuGPX - https://www.visugpx.com">
  <metadata>
    <name>Petit tour Entre-deux-Monts</name>
    <desc><![CDATA[Petit tour Entre-Deux-Monts par Malvaux et Rachet
8 Aout 2011]]></desc>
  </metadata>
  <trk>
    <name><![CDATA[2011-08-08T09:38:10Z]]></name>
    <trkseg>
      <trkpt lat="46.63866" lon="5.95303">
        <ele>747.081543</ele>
        <time>2011-08-08T09:38:14Z</time>
      </trkpt>
      <trkpt lat="46.63866" lon="5.95324">
        <ele>745.6396484</ele>
        <time>2011-08-08T09:38:19Z</time>
      </trkpt>
      <trkpt lat="46.63869" lon="5.95343">
        <ele>747.5622559</ele>
        <time>2011-08-08T09:38:24Z</time>
      </trkpt>
      <trkpt lat="46.63873" lon="5.95369">
        <ele>750.4465332</ele>
        <time>2011-08-08T09:38:30Z</time>
      </trkpt>
      <trkpt lat="46.63874" lon="5.95387">
        <ele>749.4851074</ele>
        <time>2011-08-08T09:38:34Z</time>
      </trkpt>
      <trkpt lat="46.63878" lon="5.95411">
        <ele>747.5622559</ele>
        <time>2011-08-08T09:38:40Z</time>
      </trkpt>
      <trkpt lat="46.63882" lon="5.95431">
        <ele>749.4851074</ele>
        <time>2011-08-08T09:38:45Z</time>
      </trkpt>
      <trkpt lat="46.63887" lon="5.95449">
        <ele>750.4465332</ele>
        <time>2011-08-08T09:38:50Z</time>
      </trkpt>
      <trkpt lat="46.63894" lon="5.95476">
        <ele>750.927002</ele>
        <time>2011-08-08T09:38:58Z</time>
      </trkpt>
      <trkpt lat="46.639" lon="5.95495">
        <ele>750.927002</ele>
        <time>2011-08-08T09:39:04Z</time>
      </trkpt>
      <trkpt lat="46.63905" lon="5.95515">
        <ele>750.4465332</ele>
        <time>2011-08-08T09:39:10Z</time>
      </trkpt>
      <trkpt lat="46.63907" lon="5.95532">
        <ele>749.9658203</ele>
        <time>2011-08-08T09:39:15Z</time>
      </trkpt>
      <trkpt lat="46.63903" lon="5.95548">
        <ele>750.4465332</ele>
        <time>2011-08-08T09:39:20Z</time>
      </trkpt>
      <trkpt lat="46.63892" lon="5.95558">
        <ele>749.9658203</ele>
        <time>2011-08-08T09:39:25Z</time>
      </trkpt>
      <trkpt lat="46.63878" lon="5.95565">
        <ele>749.9658203</ele>
        <time>2011-08-08T09:39:31Z</time>
      </trkpt>
      <trkpt lat="46.63866" lon="5.9557">
        <ele>749.4851074</ele>
        <time>2011-08-08T09:39:36Z</time>
      </trkpt>
      <trkpt lat="46.63851" lon="5.95575">
        <ele>748.0432129</ele>
        <time>2011-08-08T09:39:42Z</time>
      </trkpt>
      <trkpt lat="46.63839" lon="5.95582">
        <ele>747.081543</ele>
        <time>2011-08-08T09:39:47Z</time>
      </trkpt>
      <trkpt lat="46.63823" lon="5.95592">
        <ele>745.6396484</ele>
        <time>2011-08-08T09:39:53Z</time>
      </trkpt>
      <trkpt lat="46.63811" lon="5.95601">
        <ele>745.6396484</ele>
        <time>2011-08-08T09:39:58Z</time>
      </trkpt>
      <trkpt lat="46.63801" lon="5.95614">
        <ele>747.5622559</ele>
        <time>2011-08-08T09:40:03Z</time>
      </trkpt>
      <trkpt lat="46.63792" lon="5.95632">
        <ele>748.5236816</ele>
        <time>2011-08-08T09:40:09Z</time>
      </trkpt>
      <trkpt lat="46.63785" lon="5.95646">
        <ele>748.5236816</ele>
        <time>2011-08-08T09:40:14Z</time>
      </trkpt>
      <trkpt lat="46.63779" lon="5.95658">
        <ele>749.0043945</ele>
        <time>2011-08-08T09:40:18Z</time>
      </trkpt>
      <trkpt lat="46.63775" lon="5.95668">
        <ele>749.0043945</ele>
        <time>2011-08-08T09:40:22Z</time>
      </trkpt>
      <trkpt lat="46.6377" lon="5.95687">
        <ele>748.0432129</ele>
        <time>2011-08-08T09:40:28Z</time>
      </trkpt>
      <trkpt lat="46.63769" lon="5.9571">
        <ele>750.4465332</ele>
        <time>2011-08-08T09:40:35Z</time>
      </trkpt>
      <trkpt lat="46.63769" lon="5.95732">
        <ele>753.3303223</ele>
        <time>2011-08-08T09:40:41Z</time>
      </trkpt>
      <trkpt lat="46.63772" lon="5.9575">
        <ele>754.7722168</ele>
        <time>2011-08-08T09:40:46Z</time>
      </trkpt>
      <trkpt lat="46.63776" lon="5.95767">
        <ele>755.7336426</ele>
        <time>2011-08-08T09:40:51Z</time>
      </trkpt>
      <trkpt lat="46.6378" lon="5.9578">
        <ele>756.2141113</ele>
        <time>2011-08-08T09:40:55Z</time>
      </trkpt>
      <trkpt lat="46.63783" lon="5.95799">
        <ele>756.6948242</ele>
        <time>2011-08-08T09:41:01Z</time>
      </trkpt>
      <trkpt lat="46.63785" lon="5.95819">
        <ele>757.65625</ele>
        <time>2011-08-08T09:41:06Z</time>
      </trkpt>
      <trkpt lat="46.63788" lon="5.95831">
        <ele>757.65625</ele>
        <time>2011-08-08T09:41:09Z</time>
      </trkpt>
      <trkpt lat="46.63792" lon="5.95854">
        <ele>758.1369629</ele>
        <time>2011-08-08T09:41:15Z</time>
      </trkpt>
      <trkpt lat="46.63796" lon="5.95872">
        <ele>761.5014648</ele>
        <time>2011-08-08T09:41:20Z</time>
      </trkpt>
      <trkpt lat="46.63799" lon="5.95889">
        <ele>762.4626465</ele>
        <time>2011-08-08T09:41:25Z</time>
      </trkpt>
      <trkpt lat="46.63799" lon="5.95892">
        <ele>761.9821777</ele>
        <time>2011-08-08T09:41:26Z</time>
      </trkpt>
      <trkpt lat="46.63806" lon="5.95912">
        <ele>762.4626465</ele>
        <time>2011-08-08T09:41:32Z</time>
      </trkpt>
      <trkpt lat="46.63807" lon="5.95932">
        <ele>763.904541</ele>
        <time>2011-08-08T09:41:37Z</time>
      </trkpt>
      <trkpt lat="46.63806" lon="5.95949">
        <ele>766.3081055</ele>
        <time>2011-08-08T09:41:42Z</time>
      </trkpt>
      <trkpt lat="46.63802" lon="5.95967">
        <ele>765.3469238</ele>
        <time>2011-08-08T09:41:47Z</time>
      </trkpt>
      <trkpt lat="46.63798" lon="5.95986">
        <ele>764.8662109</ele>
        <time>2011-08-08T09:41:52Z</time>
      </trkpt>
      <trkpt lat="46.63795" lon="5.96011">
        <ele>765.8276367</ele>
        <time>2011-08-08T09:41:58Z</time>
      </trkpt>
      <trkpt lat="46.63792" lon="5.96027">
        <ele>764.8662109</ele>
        <time>2011-08-08T09:42:02Z</time>
      </trkpt>
      <trkpt lat="46.63792" lon="5.96048">
        <ele>762.4626465</ele>
        <time>2011-08-08T09:42:07Z</time>
      </trkpt>
      <trkpt lat="46.63793" lon="5.96065">
        <ele>761.9821777</ele>
        <time>2011-08-08T09:42:11Z</time>
      </trkpt>
      <trkpt lat="46.63795" lon="5.96088">
        <ele>762.9433594</ele>
        <time>2011-08-08T09:42:17Z</time>
      </trkpt>
      <trkpt lat="46.63796" lon="5.96091">
        <ele>763.4240723</ele>
        <time>2011-08-08T09:42:18Z</time>
      </trkpt>
      <trkpt lat="46.63796" lon="5.96113">
        <ele>762.9433594</ele>
        <time>2011-08-08T09:42:24Z</time>
      </trkpt>
      <trkpt lat="46.63793" lon="5.96136">
        <ele>763.4240723</ele>
        <time>2011-08-08T09:42:29Z</time>
      </trkpt>
      <trkpt lat="46.63796" lon="5.96151">
        <ele>764.385498</ele>
        <time>2011-08-08T09:42:32Z</time>
      </trkpt>
      <trkpt lat="46.638" lon="5.96183">
        <ele>766.3081055</ele>
        <time>2011-08-08T09:42:39Z</time>
      </trkpt>
      <trkpt lat="46.63801" lon="5.96204">
        <ele>765.8276367</ele>
        <time>2011-08-08T09:42:44Z</time>
      </trkpt>
      <trkpt lat="46.63803" lon="5.9622">
        <ele>764.8662109</ele>
        <time>2011-08-08T09:42:48Z</time>
      </trkpt>
      <trkpt lat="46.63808" lon="5.96233">
        <ele>762.9433594</ele>
        <time>2011-08-08T09:42:52Z</time>
      </trkpt>
      <trkpt lat="46.63809" lon="5.96237">
        <ele>762.9433594</ele>
        <time>2011-08-08T09:42:53Z</time>
      </trkpt>
      <trkpt lat="46.63805" lon="5.96256">
        <ele>761.5014648</ele>
        <time>2011-08-08T09:42:58Z</time>
      </trkpt>
      <trkpt lat="46.63805" lon="5.9626">
        <ele>761.5014648</ele>
        <time>2011-08-08T09:42:59Z</time>
      </trkpt>
      <trkpt lat="46.63805" lon="5.9628">
        <ele>760.5400391</ele>
        <time>2011-08-08T09:43:04Z</time>
      </trkpt>
      <trkpt lat="46.63806" lon="5.963">
        <ele>760.0593262</ele>
        <time>2011-08-08T09:43:09Z</time>
      </trkpt>
      <trkpt lat="46.63807" lon="5.96316">
        <ele>759.0981445</ele>
        <time>2011-08-08T09:43:13Z</time>
      </trkpt>
      <trkpt lat="46.63811" lon="5.96335">
        <ele>759.5788574</ele>
        <time>2011-08-08T09:43:18Z</time>
      </trkpt>
      <trkpt lat="46.63814" lon="5.96349">
        <ele>759.5788574</ele>
        <time>2011-08-08T09:43:22Z</time>
      </trkpt>
      <trkpt lat="46.63817" lon="5.96372">
        <ele>761.9821777</ele>
        <time>2011-08-08T09:43:28Z</time>
      </trkpt>
      <trkpt lat="46.63815" lon="5.96388">
        <ele>768.2307129</ele>
        <time>2011-08-08T09:43:32Z</time>
      </trkpt>
      <trkpt lat="46.63816" lon="5.96405">
        <ele>770.1533203</ele>
        <time>2011-08-08T09:43:37Z</time>
      </trkpt>
      <trkpt lat="46.63816" lon="5.96421">
        <ele>771.5952148</ele>
        <time>2011-08-08T09:43:42Z</time>
      </trkpt>
      <trkpt lat="46.63814" lon="5.96441">
        <ele>771.5952148</ele>
        <time>2011-08-08T09:43:48Z</time>
      </trkpt>
      <trkpt lat="46.63816" lon="5.96448">
        <ele>772.5566406</ele>
        <time>2011-08-08T09:43:51Z</time>
      </trkpt>
      <trkpt lat="46.63812" lon="5.96465">
        <ele>773.0373535</ele>
        <time>2011-08-08T09:43:55Z</time>
      </trkpt>
      <trkpt lat="46.63811" lon="5.96485">
        <ele>773.9985352</ele>
        <time>2011-08-08T09:44:00Z</time>
      </trkpt>
      <trkpt lat="46.6381" lon="5.96501">
        <ele>775.9211426</ele>
        <time>2011-08-08T09:44:04Z</time>
      </trkpt>
      <trkpt lat="46.6381" lon="5.96515">
        <ele>775.9211426</ele>
        <time>2011-08-08T09:44:08Z</time>
      </trkpt>
      <trkpt lat="46.63811" lon="5.96519">
        <ele>775.9211426</ele>
        <time>2011-08-08T09:44:09Z</time>
      </trkpt>
      <trkpt lat="46.63813" lon="5.9653">
        <ele>777.84375</ele>
        <time>2011-08-08T09:44:13Z</time>
      </trkpt>
      <trkpt lat="46.63809" lon="5.9655">
        <ele>777.84375</ele>
        <time>2011-08-08T09:44:19Z</time>
      </trkpt>
      <trkpt lat="46.63807" lon="5.96567">
        <ele>776.4018555</ele>
        <time>2011-08-08T09:44:24Z</time>
      </trkpt>
      <trkpt lat="46.63805" lon="5.96583">
        <ele>776.4018555</ele>
        <time>2011-08-08T09:44:29Z</time>
      </trkpt>
      <trkpt lat="46.63805" lon="5.96597">
        <ele>776.4018555</ele>
        <time>2011-08-08T09:44:33Z</time>
      </trkpt>
      <trkpt lat="46.63803" lon="5.96612">
        <ele>777.84375</ele>
        <time>2011-08-08T09:44:37Z</time>
      </trkpt>
      <trkpt lat="46.63804" lon="5.96627">
        <ele>779.7663574</ele>
        <time>2011-08-08T09:44:42Z</time>
      </trkpt>
      <trkpt lat="46.63807" lon="5.96642">
        <ele>781.2087402</ele>
        <time>2011-08-08T09:44:47Z</time>
      </trkpt>
      <trkpt lat="46.63808" lon="5.96654">
        <ele>782.6506348</ele>
        <time>2011-08-08T09:44:51Z</time>
      </trkpt>
      <trkpt lat="46.63809" lon="5.96667">
        <ele>783.1311035</ele>
        <time>2011-08-08T09:44:55Z</time>
      </trkpt>
      <trkpt lat="46.6381" lon="5.9668">
        <ele>783.1311035</ele>
        <time>2011-08-08T09:44:59Z</time>
      </trkpt>
      <trkpt lat="46.63808" lon="5.96696">
        <ele>783.1311035</ele>
        <time>2011-08-08T09:45:03Z</time>
      </trkpt>
      <trkpt lat="46.63812" lon="5.96715">
        <ele>784.5732422</ele>
        <time>2011-08-08T09:45:09Z</time>
      </trkpt>
      <trkpt lat="46.63816" lon="5.96734">
        <ele>786.9763184</ele>
        <time>2011-08-08T09:45:14Z</time>
      </trkpt>
      <trkpt lat="46.63818" lon="5.96753">
        <ele>788.418457</ele>
        <time>2011-08-08T09:45:19Z</time>
      </trkpt>
      <trkpt lat="46.6382" lon="5.96769">
        <ele>786.9763184</ele>
        <time>2011-08-08T09:45:24Z</time>
      </trkpt>
      <trkpt lat="46.6382" lon="5.96784">
        <ele>787.9377441</ele>
        <time>2011-08-08T09:45:28Z</time>
      </trkpt>
      <trkpt lat="46.63821" lon="5.96801">
        <ele>787.4570313</ele>
        <time>2011-08-08T09:45:33Z</time>
      </trkpt>
      <trkpt lat="46.63824" lon="5.96818">
        <ele>786.0151367</ele>
        <time>2011-08-08T09:45:38Z</time>
      </trkpt>
      <trkpt lat="46.63825" lon="5.96825">
        <ele>786.0151367</ele>
        <time>2011-08-08T09:45:40Z</time>
      </trkpt>
      <trkpt lat="46.63834" lon="5.96844">
        <ele>791.782959</ele>
        <time>2011-08-08T09:45:45Z</time>
      </trkpt>
      <trkpt lat="46.63833" lon="5.96861">
        <ele>792.7443848</ele>
        <time>2011-08-08T09:45:50Z</time>
      </trkpt>
      <trkpt lat="46.63831" lon="5.96875">
        <ele>792.2636719</ele>
        <time>2011-08-08T09:45:54Z</time>
      </trkpt>
      <trkpt lat="46.6383" lon="5.96894">
        <ele>792.7443848</ele>
        <time>2011-08-08T09:45:59Z</time>
      </trkpt>
      <trkpt lat="46.63831" lon="5.96907">
        <ele>794.1862793</ele>
        <time>2011-08-08T09:46:02Z</time>
      </trkpt>
      <trkpt lat="46.63832" lon="5.96924">
        <ele>795.1474609</ele>
        <time>2011-08-08T09:46:07Z</time>
      </trkpt>
      <trkpt lat="46.63831" lon="5.96929">
        <ele>795.1474609</ele>
        <time>2011-08-08T09:46:08Z</time>
      </trkpt>
      <trkpt lat="46.6383" lon="5.96941">
        <ele>795.1474609</ele>
        <time>2011-08-08T09:46:11Z</time>
      </trkpt>
      <trkpt lat="46.63832" lon="5.96956">
        <ele>795.6281738</ele>
        <time>2011-08-08T09:46:15Z</time>
      </trkpt>
      <trkpt lat="46.63833" lon="5.96971">
        <ele>796.5898438</ele>
        <time>2011-08-08T09:46:19Z</time>
      </trkpt>
      <trkpt lat="46.63839" lon="5.96986">
        <ele>796.1091309</ele>
        <time>2011-08-08T09:46:23Z</time>
      </trkpt>
      <trkpt lat="46.63844" lon="5.97012">
        <ele>795.6281738</ele>
        <time>2011-08-08T09:46:30Z</time>
      </trkpt>
      <trkpt lat="46.63847" lon="5.97029">
        <ele>797.0703125</ele>
        <time>2011-08-08T09:46:34Z</time>
      </trkpt>
      <trkpt lat="46.63854" lon="5.97042">
        <ele>798.0317383</ele>
        <time>2011-08-08T09:46:38Z</time>
      </trkpt>
      <trkpt lat="46.6386" lon="5.97065">
        <ele>803.3188477</ele>
        <time>2011-08-08T09:46:43Z</time>
      </trkpt>
      <trkpt lat="46.63859" lon="5.97073">
        <ele>802.8381348</ele>
        <time>2011-08-08T09:46:45Z</time>
      </trkpt>
      <trkpt lat="46.63861" lon="5.97096">
        <ele>799.9543457</ele>
        <time>2011-08-08T09:46:51Z</time>
      </trkpt>
      <trkpt lat="46.63861" lon="5.971">
        <ele>799.9543457</ele>
        <time>2011-08-08T09:46:52Z</time>
      </trkpt>
      <trkpt lat="46.63866" lon="5.97127">
        <ele>800.9155273</ele>
        <time>2011-08-08T09:46:59Z</time>
      </trkpt>
      <trkpt lat="46.63867" lon="5.97136">
        <ele>800.4350586</ele>
        <time>2011-08-08T09:47:01Z</time>
      </trkpt>
      <trkpt lat="46.63873" lon="5.97161">
        <ele>798.512207</ele>
        <time>2011-08-08T09:47:08Z</time>
      </trkpt>
      <trkpt lat="46.63877" lon="5.97168">
        <ele>797.0703125</ele>
        <time>2011-08-08T09:47:10Z</time>
      </trkpt>
      <trkpt lat="46.63879" lon="5.97195">
        <ele>802.3574219</ele>
        <time>2011-08-08T09:47:16Z</time>
      </trkpt>
      <trkpt lat="46.63884" lon="5.97217">
        <ele>803.3188477</ele>
        <time>2011-08-08T09:47:21Z</time>
      </trkpt>
      <trkpt lat="46.63887" lon="5.97235">
        <ele>803.7995605</ele>
        <time>2011-08-08T09:47:25Z</time>
      </trkpt>
      <trkpt lat="46.63889" lon="5.97256">
        <ele>801.8769531</ele>
        <time>2011-08-08T09:47:30Z</time>
      </trkpt>
      <trkpt lat="46.63891" lon="5.97271">
        <ele>800.4350586</ele>
        <time>2011-08-08T09:47:33Z</time>
      </trkpt>
      <trkpt lat="46.63897" lon="5.97293">
        <ele>798.512207</ele>
        <time>2011-08-08T09:47:38Z</time>
      </trkpt>
      <trkpt lat="46.63898" lon="5.97296">
        <ele>797.5510254</ele>
        <time>2011-08-08T09:47:39Z</time>
      </trkpt>
      <trkpt lat="46.63905" lon="5.97309">
        <ele>794.1862793</ele>
        <time>2011-08-08T09:47:43Z</time>
      </trkpt>
      <trkpt lat="46.63915" lon="5.97331">
        <ele>791.782959</ele>
        <time>2011-08-08T09:47:48Z</time>
      </trkpt>
      <trkpt lat="46.63919" lon="5.97339">
        <ele>790.3410645</ele>
        <time>2011-08-08T09:47:50Z</time>
      </trkpt>
      <trkpt lat="46.63923" lon="5.97353">
        <ele>793.7055664</ele>
        <time>2011-08-08T09:47:53Z</time>
      </trkpt>
      <trkpt lat="46.63927" lon="5.97364">
        <ele>792.7443848</ele>
        <time>2011-08-08T09:47:58Z</time>
      </trkpt>
      <trkpt lat="46.63934" lon="5.97361">
        <ele>791.3022461</ele>
        <time>2011-08-08T09:48:00Z</time>
      </trkpt>
      <trkpt lat="46.63946" lon="5.97345">
        <ele>789.3796387</ele>
        <time>2011-08-08T09:48:06Z</time>
      </trkpt>
      <trkpt lat="46.63952" lon="5.97328">
        <ele>789.8603516</ele>
        <time>2011-08-08T09:48:10Z</time>
      </trkpt>
      <trkpt lat="46.63953" lon="5.97325">
        <ele>790.3410645</ele>
        <time>2011-08-08T09:48:11Z</time>
      </trkpt>
      <trkpt lat="46.63965" lon="5.97308">
        <ele>789.8603516</ele>
        <time>2011-08-08T09:48:16Z</time>
      </trkpt>
      <trkpt lat="46.63975" lon="5.97302">
        <ele>789.3796387</ele>
        <time>2011-08-08T09:48:20Z</time>
      </trkpt>
      <trkpt lat="46.63986" lon="5.97297">
        <ele>789.8603516</ele>
        <time>2011-08-08T09:48:25Z</time>
      </trkpt>
      <trkpt lat="46.63995" lon="5.97293">
        <ele>789.3796387</ele>
        <time>2011-08-08T09:48:29Z</time>
      </trkpt>
      <trkpt lat="46.64003" lon="5.97291">
        <ele>789.8603516</ele>
        <time>2011-08-08T09:48:33Z</time>
      </trkpt>
      <trkpt lat="46.64016" lon="5.97285">
        <ele>789.3796387</ele>
        <time>2011-08-08T09:48:38Z</time>
      </trkpt>
      <trkpt lat="46.64028" lon="5.97281">
        <ele>788.418457</ele>
        <time>2011-08-08T09:48:42Z</time>
      </trkpt>
      <trkpt lat="46.6404" lon="5.97275">
        <ele>788.8991699</ele>
        <time>2011-08-08T09:48:46Z</time>
      </trkpt>
      <trkpt lat="46.6405" lon="5.97269">
        <ele>789.8603516</ele>
        <time>2011-08-08T09:48:50Z</time>
      </trkpt>
      <trkpt lat="46.64065" lon="5.97263">
        <ele>791.3022461</ele>
        <time>2011-08-08T09:48:56Z</time>
      </trkpt>
      <trkpt lat="46.64079" lon="5.97256">
        <ele>791.782959</ele>
        <time>2011-08-08T09:49:01Z</time>
      </trkpt>
      <trkpt lat="46.64093" lon="5.97248">
        <ele>790.8215332</ele>
        <time>2011-08-08T09:49:06Z</time>
      </trkpt>
      <trkpt lat="46.64104" lon="5.97244">
        <ele>790.3410645</ele>
        <time>2011-08-08T09:49:10Z</time>
      </trkpt>
      <trkpt lat="46.64119" lon="5.97241">
        <ele>789.8603516</ele>
        <time>2011-08-08T09:49:15Z</time>
      </trkpt>
      <trkpt lat="46.6413" lon="5.97234">
        <ele>789.8603516</ele>
        <time>2011-08-08T09:49:20Z</time>
      </trkpt>
      <trkpt lat="46.64142" lon="5.97226">
        <ele>791.3022461</ele>
        <time>2011-08-08T09:49:25Z</time>
      </trkpt>
      <trkpt lat="46.64156" lon="5.97217">
        <ele>794.1862793</ele>
        <time>2011-08-08T09:49:31Z</time>
      </trkpt>
      <trkpt lat="46.64167" lon="5.97213">
        <ele>795.6281738</ele>
        <time>2011-08-08T09:49:36Z</time>
      </trkpt>
      <trkpt lat="46.6418" lon="5.97205">
        <ele>795.6281738</ele>
        <time>2011-08-08T09:49:41Z</time>
      </trkpt>
      <trkpt lat="46.64191" lon="5.97199">
        <ele>795.1474609</ele>
        <time>2011-08-08T09:49:45Z</time>
      </trkpt>
      <trkpt lat="46.64202" lon="5.97192">
        <ele>796.5898438</ele>
        <time>2011-08-08T09:49:50Z</time>
      </trkpt>
      <trkpt lat="46.64218" lon="5.97187">
        <ele>797.0703125</ele>
        <time>2011-08-08T09:49:56Z</time>
      </trkpt>
      <trkpt lat="46.64227" lon="5.97183">
        <ele>797.5510254</ele>
        <time>2011-08-08T09:50:00Z</time>
      </trkpt>
      <trkpt lat="46.64236" lon="5.97176">
        <ele>798.0317383</ele>
        <time>2011-08-08T09:50:04Z</time>
      </trkpt>
      <trkpt lat="46.64247" lon="5.9717">
        <ele>797.5510254</ele>
        <time>2011-08-08T09:50:09Z</time>
      </trkpt>
      <trkpt lat="46.64256" lon="5.97162">
        <ele>798.512207</ele>
        <time>2011-08-08T09:50:13Z</time>
      </trkpt>
      <trkpt lat="46.64265" lon="5.97152">
        <ele>800.4350586</ele>
        <time>2011-08-08T09:50:17Z</time>
      </trkpt>
      <trkpt lat="46.64268" lon="5.97147">
        <ele>800.9155273</ele>
        <time>2011-08-08T09:50:19Z</time>
      </trkpt>
      <trkpt lat="46.64267" lon="5.9713">
        <ele>801.3962402</ele>
        <time>2011-08-08T09:50:24Z</time>
      </trkpt>
      <trkpt lat="46.64265" lon="5.97126">
        <ele>801.3962402</ele>
        <time>2011-08-08T09:50:25Z</time>
      </trkpt>
      <trkpt lat="46.64253" lon="5.97103">
        <ele>802.3574219</ele>
        <time>2011-08-08T09:50:31Z</time>
      </trkpt>
      <trkpt lat="46.64249" lon="5.97089">
        <ele>802.3574219</ele>
        <time>2011-08-08T09:50:35Z</time>
      </trkpt>
      <trkpt lat="46.64244" lon="5.97074">
        <ele>801.8769531</ele>
        <time>2011-08-08T09:50:39Z</time>
      </trkpt>
      <trkpt lat="46.64243" lon="5.9707">
        <ele>802.3574219</ele>
        <time>2011-08-08T09:50:40Z</time>
      </trkpt>
      <trkpt lat="46.64249" lon="5.97058">
        <ele>804.7607422</ele>
        <time>2011-08-08T09:50:44Z</time>
      </trkpt>
      <trkpt lat="46.64255" lon="5.97052">
        <ele>805.2414551</ele>
        <time>2011-08-08T09:50:47Z</time>
      </trkpt>
      <trkpt lat="46.64265" lon="5.97045">
        <ele>804.7607422</ele>
        <time>2011-08-08T09:50:51Z</time>
      </trkpt>
      <trkpt lat="46.64279" lon="5.97038">
        <ele>803.7995605</ele>
        <time>2011-08-08T09:50:57Z</time>
      </trkpt>
      <trkpt lat="46.64288" lon="5.97031">
        <ele>803.7995605</ele>
        <time>2011-08-08T09:51:01Z</time>
      </trkpt>
      <trkpt lat="46.643" lon="5.97026">
        <ele>802.3574219</ele>
        <time>2011-08-08T09:51:07Z</time>
      </trkpt>
      <trkpt lat="46.64303" lon="5.97025">
        <ele>803.3188477</ele>
        <time>2011-08-08T09:51:09Z</time>
      </trkpt>
      <trkpt lat="46.6431" lon="5.97022">
        <ele>805.2414551</ele>
        <time>2011-08-08T09:51:13Z</time>
      </trkpt>
      <trkpt lat="46.64318" lon="5.97017">
        <ele>806.6833496</ele>
        <time>2011-08-08T09:51:18Z</time>
      </trkpt>
      <trkpt lat="46.64325" lon="5.97012">
        <ele>806.2026367</ele>
        <time>2011-08-08T09:51:22Z</time>
      </trkpt>
      <trkpt lat="46.64327" lon="5.97012">
        <ele>806.2026367</ele>
        <time>2011-08-08T09:51:23Z</time>
      </trkpt>
      <trkpt lat="46.64338" lon="5.97006">
        <ele>808.1254883</ele>
        <time>2011-08-08T09:51:29Z</time>
      </trkpt>
      <trkpt lat="46.64339" lon="5.97006">
        <ele>809.0866699</ele>
        <time>2011-08-08T09:51:30Z</time>
      </trkpt>
      <trkpt lat="46.64346" lon="5.97003">
        <ele>809.0866699</ele>
        <time>2011-08-08T09:51:34Z</time>
      </trkpt>
      <trkpt lat="46.64351" lon="5.96999">
        <ele>809.5673828</ele>
        <time>2011-08-08T09:51:37Z</time>
      </trkpt>
      <trkpt lat="46.64358" lon="5.96995">
        <ele>809.5673828</ele>
        <time>2011-08-08T09:51:41Z</time>
      </trkpt>
      <trkpt lat="46.64367" lon="5.96991">
        <ele>809.5673828</ele>
        <time>2011-08-08T09:51:46Z</time>
      </trkpt>
      <trkpt lat="46.64376" lon="5.96985">
        <ele>810.5285645</ele>
        <time>2011-08-08T09:51:50Z</time>
      </trkpt>
      <trkpt lat="46.64384" lon="5.9698">
        <ele>811.0092773</ele>
        <time>2011-08-08T09:51:55Z</time>
      </trkpt>
      <trkpt lat="46.64393" lon="5.96973">
        <ele>811.9707031</ele>
        <time>2011-08-08T09:52:00Z</time>
      </trkpt>
      <trkpt lat="46.64399" lon="5.96966">
        <ele>812.9321289</ele>
        <time>2011-08-08T09:52:03Z</time>
      </trkpt>
      <trkpt lat="46.64408" lon="5.96958">
        <ele>813.8933105</ele>
        <time>2011-08-08T09:52:08Z</time>
      </trkpt>
      <trkpt lat="46.6442" lon="5.9695">
        <ele>812.9321289</ele>
        <time>2011-08-08T09:52:14Z</time>
      </trkpt>
      <trkpt lat="46.64428" lon="5.96946">
        <ele>812.9321289</ele>
        <time>2011-08-08T09:52:18Z</time>
      </trkpt>
      <trkpt lat="46.64436" lon="5.96939">
        <ele>813.8933105</ele>
        <time>2011-08-08T09:52:23Z</time>
      </trkpt>
      <trkpt lat="46.64444" lon="5.96934">
        <ele>813.8933105</ele>
        <time>2011-08-08T09:52:28Z</time>
      </trkpt>
      <trkpt lat="46.6445" lon="5.9693">
        <ele>814.3740234</ele>
        <time>2011-08-08T09:52:31Z</time>
      </trkpt>
      <trkpt lat="46.6446" lon="5.96924">
        <ele>817.7385254</ele>
        <time>2011-08-08T09:52:37Z</time>
      </trkpt>
      <trkpt lat="46.64467" lon="5.96921">
        <ele>819.1806641</ele>
        <time>2011-08-08T09:52:41Z</time>
      </trkpt>
      <trkpt lat="46.64475" lon="5.96914">
        <ele>820.1418457</ele>
        <time>2011-08-08T09:52:45Z</time>
      </trkpt>
      <trkpt lat="46.64486" lon="5.96907">
        <ele>820.6225586</ele>
        <time>2011-08-08T09:52:50Z</time>
      </trkpt>
      <trkpt lat="46.64496" lon="5.96898">
        <ele>824.4677734</ele>
        <time>2011-08-08T09:52:55Z</time>
      </trkpt>
      <trkpt lat="46.64507" lon="5.96895">
        <ele>823.0258789</ele>
        <time>2011-08-08T09:52:59Z</time>
      </trkpt>
      <trkpt lat="46.64516" lon="5.96895">
        <ele>822.0644531</ele>
        <time>2011-08-08T09:53:03Z</time>
      </trkpt>
      <trkpt lat="46.64528" lon="5.96894">
        <ele>824.9484863</ele>
        <time>2011-08-08T09:53:08Z</time>
      </trkpt>
      <trkpt lat="46.64537" lon="5.96901">
        <ele>823.9870605</ele>
        <time>2011-08-08T09:53:12Z</time>
      </trkpt>
      <trkpt lat="46.64553" lon="5.96913">
        <ele>822.545166</ele>
        <time>2011-08-08T09:53:19Z</time>
      </trkpt>
      <trkpt lat="46.64563" lon="5.96921">
        <ele>820.1418457</ele>
        <time>2011-08-08T09:53:23Z</time>
      </trkpt>
      <trkpt lat="46.64572" lon="5.96929">
        <ele>818.6999512</ele>
        <time>2011-08-08T09:53:27Z</time>
      </trkpt>
      <trkpt lat="46.64573" lon="5.96932">
        <ele>818.6999512</ele>
        <time>2011-08-08T09:53:28Z</time>
      </trkpt>
      <trkpt lat="46.64575" lon="5.96937">
        <ele>817.7385254</ele>
        <time>2011-08-08T09:53:30Z</time>
      </trkpt>
      <trkpt lat="46.64585" lon="5.96948">
        <ele>817.2580566</ele>
        <time>2011-08-08T09:53:35Z</time>
      </trkpt>
      <trkpt lat="46.64588" lon="5.96951">
        <ele>817.7385254</ele>
        <time>2011-08-08T09:53:36Z</time>
      </trkpt>
      <trkpt lat="46.64599" lon="5.96964">
        <ele>819.1806641</ele>
        <time>2011-08-08T09:53:41Z</time>
      </trkpt>
      <trkpt lat="46.64601" lon="5.96967">
        <ele>818.2192383</ele>
        <time>2011-08-08T09:53:42Z</time>
      </trkpt>
      <trkpt lat="46.64614" lon="5.96979">
        <ele>818.6999512</ele>
        <time>2011-08-08T09:53:47Z</time>
      </trkpt>
      <trkpt lat="46.64621" lon="5.96991">
        <ele>819.661377</ele>
        <time>2011-08-08T09:53:51Z</time>
      </trkpt>
      <trkpt lat="46.64624" lon="5.96996">
        <ele>819.661377</ele>
        <time>2011-08-08T09:53:53Z</time>
      </trkpt>
      <trkpt lat="46.64627" lon="5.97001">
        <ele>819.1806641</ele>
        <time>2011-08-08T09:53:55Z</time>
      </trkpt>
      <trkpt lat="46.64641" lon="5.97017">
        <ele>818.6999512</ele>
        <time>2011-08-08T09:54:01Z</time>
      </trkpt>
      <trkpt lat="46.64646" lon="5.97022">
        <ele>817.7385254</ele>
        <time>2011-08-08T09:54:03Z</time>
      </trkpt>
      <trkpt lat="46.64656" lon="5.9704">
        <ele>814.8547363</ele>
        <time>2011-08-08T09:54:08Z</time>
      </trkpt>
      <trkpt lat="46.64668" lon="5.9706">
        <ele>812.451416</ele>
        <time>2011-08-08T09:54:13Z</time>
      </trkpt>
      <trkpt lat="46.64681" lon="5.97076">
        <ele>811.0092773</ele>
        <time>2011-08-08T09:54:17Z</time>
      </trkpt>
      <trkpt lat="46.64696" lon="5.97092">
        <ele>808.1254883</ele>
        <time>2011-08-08T09:54:21Z</time>
      </trkpt>
      <trkpt lat="46.64709" lon="5.97104">
        <ele>805.722168</ele>
        <time>2011-08-08T09:54:26Z</time>
      </trkpt>
      <trkpt lat="46.64717" lon="5.97115">
        <ele>803.3188477</ele>
        <time>2011-08-08T09:54:30Z</time>
      </trkpt>
      <trkpt lat="46.64724" lon="5.97124">
        <ele>802.3574219</ele>
        <time>2011-08-08T09:54:33Z</time>
      </trkpt>
      <trkpt lat="46.64733" lon="5.97134">
        <ele>805.722168</ele>
        <time>2011-08-08T09:54:38Z</time>
      </trkpt>
      <trkpt lat="46.64748" lon="5.97146">
        <ele>806.2026367</ele>
        <time>2011-08-08T09:54:43Z</time>
      </trkpt>
      <trkpt lat="46.64752" lon="5.97149">
        <ele>805.722168</ele>
        <time>2011-08-08T09:54:44Z</time>
      </trkpt>
      <trkpt lat="46.64759" lon="5.9716">
        <ele>805.722168</ele>
        <time>2011-08-08T09:54:48Z</time>
      </trkpt>
      <trkpt lat="46.64765" lon="5.97176">
        <ele>806.2026367</ele>
        <time>2011-08-08T09:54:53Z</time>
      </trkpt>
      <trkpt lat="46.64777" lon="5.97187">
        <ele>806.2026367</ele>
        <time>2011-08-08T09:54:57Z</time>
      </trkpt>
      <trkpt lat="46.64784" lon="5.97197">
        <ele>804.7607422</ele>
        <time>2011-08-08T09:55:01Z</time>
      </trkpt>
      <trkpt lat="46.64789" lon="5.97201">
        <ele>803.7995605</ele>
        <time>2011-08-08T09:55:03Z</time>
      </trkpt>
      <trkpt lat="46.64798" lon="5.9722">
        <ele>801.8769531</ele>
        <time>2011-08-08T09:55:09Z</time>
      </trkpt>
      <trkpt lat="46.64806" lon="5.97237">
        <ele>802.8381348</ele>
        <time>2011-08-08T09:55:14Z</time>
      </trkpt>
      <trkpt lat="46.64815" lon="5.97253">
        <ele>803.3188477</ele>
        <time>2011-08-08T09:55:19Z</time>
      </trkpt>
      <trkpt lat="46.64824" lon="5.97255">
        <ele>805.2414551</ele>
        <time>2011-08-08T09:55:24Z</time>
      </trkpt>
      <trkpt lat="46.64828" lon="5.97247">
        <ele>806.6833496</ele>
        <time>2011-08-08T09:55:26Z</time>
      </trkpt>
      <trkpt lat="46.64836" lon="5.97237">
        <ele>807.6447754</ele>
        <time>2011-08-08T09:55:29Z</time>
      </trkpt>
      <trkpt lat="46.64851" lon="5.97234">
        <ele>806.2026367</ele>
        <time>2011-08-08T09:55:34Z</time>
      </trkpt>
      <trkpt lat="46.64863" lon="5.97242">
        <ele>804.7607422</ele>
        <time>2011-08-08T09:55:38Z</time>
      </trkpt>
      <trkpt lat="46.64875" lon="5.97251">
        <ele>804.7607422</ele>
        <time>2011-08-08T09:55:42Z</time>
      </trkpt>
      <trkpt lat="46.64877" lon="5.97253">
        <ele>804.7607422</ele>
        <time>2011-08-08T09:55:43Z</time>
      </trkpt>
      <trkpt lat="46.6489" lon="5.97263">
        <ele>804.7607422</ele>
        <time>2011-08-08T09:55:48Z</time>
      </trkpt>
      <trkpt lat="46.64906" lon="5.97268">
        <ele>805.2414551</ele>
        <time>2011-08-08T09:55:53Z</time>
      </trkpt>
      <trkpt lat="46.6492" lon="5.97269">
        <ele>806.2026367</ele>
        <time>2011-08-08T09:55:58Z</time>
      </trkpt>
      <trkpt lat="46.64934" lon="5.97272">
        <ele>808.1254883</ele>
        <time>2011-08-08T09:56:03Z</time>
      </trkpt>
      <trkpt lat="46.64943" lon="5.9728">
        <ele>811.0092773</ele>
        <time>2011-08-08T09:56:07Z</time>
      </trkpt>
      <trkpt lat="46.64952" lon="5.9729">
        <ele>818.6999512</ele>
        <time>2011-08-08T09:56:11Z</time>
      </trkpt>
      <trkpt lat="46.64954" lon="5.97291">
        <ele>820.1418457</ele>
        <time>2011-08-08T09:56:12Z</time>
      </trkpt>
      <trkpt lat="46.64955" lon="5.97295">
        <ele>831.1972656</ele>
        <time>2011-08-08T09:56:17Z</time>
      </trkpt>
      <trkpt lat="46.64956" lon="5.97295">
        <ele>833.6003418</ele>
        <time>2011-08-08T09:56:19Z</time>
      </trkpt>
      <trkpt lat="46.64967" lon="5.97292">
        <ele>838.4069824</ele>
        <time>2011-08-08T09:56:25Z</time>
      </trkpt>
      <trkpt lat="46.64976" lon="5.97287">
        <ele>838.4069824</ele>
        <time>2011-08-08T09:56:29Z</time>
      </trkpt>
      <trkpt lat="46.64991" lon="5.97275">
        <ele>841.2907715</ele>
        <time>2011-08-08T09:56:34Z</time>
      </trkpt>
      <trkpt lat="46.65003" lon="5.97265">
        <ele>842.2521973</ele>
        <time>2011-08-08T09:56:38Z</time>
      </trkpt>
      <trkpt lat="46.6501" lon="5.97262">
        <ele>841.7714844</ele>
        <time>2011-08-08T09:56:41Z</time>
      </trkpt>
      <trkpt lat="46.65012" lon="5.97259">
        <ele>838.4069824</ele>
        <time>2011-08-08T09:56:46Z</time>
      </trkpt>
      <trkpt lat="46.65008" lon="5.97263">
        <ele>838.8876953</ele>
        <time>2011-08-08T09:56:48Z</time>
      </trkpt>
      <trkpt lat="46.64997" lon="5.97268">
        <ele>840.8100586</ele>
        <time>2011-08-08T09:56:53Z</time>
      </trkpt>
      <trkpt lat="46.64987" lon="5.97265">
        <ele>839.848877</ele>
        <time>2011-08-08T09:56:58Z</time>
      </trkpt>
      <trkpt lat="46.6498" lon="5.97258">
        <ele>835.0424805</ele>
        <time>2011-08-08T09:57:02Z</time>
      </trkpt>
      <trkpt lat="46.64973" lon="5.97254">
        <ele>835.0424805</ele>
        <time>2011-08-08T09:57:06Z</time>
      </trkpt>
      <trkpt lat="46.64963" lon="5.97251">
        <ele>830.2358398</ele>
        <time>2011-08-08T09:57:12Z</time>
      </trkpt>
      <trkpt lat="46.64962" lon="5.9725">
        <ele>829.2744141</ele>
        <time>2011-08-08T09:57:13Z</time>
      </trkpt>
      <trkpt lat="46.64951" lon="5.97242">
        <ele>820.6225586</ele>
        <time>2011-08-08T09:57:19Z</time>
      </trkpt>
      <trkpt lat="46.64941" lon="5.97237">
        <ele>821.5837402</ele>
        <time>2011-08-08T09:57:24Z</time>
      </trkpt>
      <trkpt lat="46.64932" lon="5.97226">
        <ele>824.9484863</ele>
        <time>2011-08-08T09:57:28Z</time>
      </trkpt>
      <trkpt lat="46.64924" lon="5.97213">
        <ele>823.9870605</ele>
        <time>2011-08-08T09:57:33Z</time>
      </trkpt>
      <trkpt lat="46.64917" lon="5.97199">
        <ele>823.5065918</ele>
        <time>2011-08-08T09:57:39Z</time>
      </trkpt>
      <trkpt lat="46.64911" lon="5.97187">
        <ele>823.0258789</ele>
        <time>2011-08-08T09:57:44Z</time>
      </trkpt>
      <trkpt lat="46.64906" lon="5.97175">
        <ele>823.9870605</ele>
        <time>2011-08-08T09:57:49Z</time>
      </trkpt>
      <trkpt lat="46.64899" lon="5.97162">
        <ele>825.909668</ele>
        <time>2011-08-08T09:57:55Z</time>
      </trkpt>
      <trkpt lat="46.64891" lon="5.97146">
        <ele>826.3903809</ele>
        <time>2011-08-08T09:58:01Z</time>
      </trkpt>
      <trkpt lat="46.6488" lon="5.97128">
        <ele>828.7939453</ele>
        <time>2011-08-08T09:58:08Z</time>
      </trkpt>
      <trkpt lat="46.64867" lon="5.97105">
        <ele>831.6777344</ele>
        <time>2011-08-08T09:58:17Z</time>
      </trkpt>
      <trkpt lat="46.6486" lon="5.97087">
        <ele>831.6777344</ele>
        <time>2011-08-08T09:58:23Z</time>
      </trkpt>
      <trkpt lat="46.64855" lon="5.97076">
        <ele>830.2358398</ele>
        <time>2011-08-08T09:58:27Z</time>
      </trkpt>
      <trkpt lat="46.64852" lon="5.97064">
        <ele>829.2744141</ele>
        <time>2011-08-08T09:58:31Z</time>
      </trkpt>
      <trkpt lat="46.64845" lon="5.97049">
        <ele>830.2358398</ele>
        <time>2011-08-08T09:58:36Z</time>
      </trkpt>
      <trkpt lat="46.64833" lon="5.97034">
        <ele>832.6391602</ele>
        <time>2011-08-08T09:58:42Z</time>
      </trkpt>
      <trkpt lat="46.64822" lon="5.97024">
        <ele>832.1584473</ele>
        <time>2011-08-08T09:58:47Z</time>
      </trkpt>
      <trkpt lat="46.6481" lon="5.97019">
        <ele>829.755127</ele>
        <time>2011-08-08T09:58:53Z</time>
      </trkpt>
      <trkpt lat="46.64798" lon="5.97012">
        <ele>828.7939453</ele>
        <time>2011-08-08T09:58:58Z</time>
      </trkpt>
      <trkpt lat="46.64786" lon="5.97005">
        <ele>830.7165527</ele>
        <time>2011-08-08T09:59:03Z</time>
      </trkpt>
      <trkpt lat="46.64771" lon="5.96991">
        <ele>832.6391602</ele>
        <time>2011-08-08T09:59:09Z</time>
      </trkpt>
      <trkpt lat="46.64763" lon="5.96979">
        <ele>833.6003418</ele>
        <time>2011-08-08T09:59:13Z</time>
      </trkpt>
      <trkpt lat="46.64756" lon="5.96964">
        <ele>833.1196289</ele>
        <time>2011-08-08T09:59:18Z</time>
      </trkpt>
      <trkpt lat="46.64749" lon="5.96949">
        <ele>833.6003418</ele>
        <time>2011-08-08T09:59:23Z</time>
      </trkpt>
      <trkpt lat="46.64744" lon="5.96934">
        <ele>832.6391602</ele>
        <time>2011-08-08T09:59:27Z</time>
      </trkpt>
      <trkpt lat="46.64739" lon="5.96918">
        <ele>832.1584473</ele>
        <time>2011-08-08T09:59:32Z</time>
      </trkpt>
      <trkpt lat="46.64733" lon="5.96901">
        <ele>830.7165527</ele>
        <time>2011-08-08T09:59:37Z</time>
      </trkpt>
      <trkpt lat="46.64728" lon="5.96887">
        <ele>831.1972656</ele>
        <time>2011-08-08T09:59:41Z</time>
      </trkpt>
      <trkpt lat="46.64723" lon="5.96865">
        <ele>830.7165527</ele>
        <time>2011-08-08T09:59:47Z</time>
      </trkpt>
      <trkpt lat="46.64721" lon="5.96849">
        <ele>830.2358398</ele>
        <time>2011-08-08T09:59:52Z</time>
      </trkpt>
      <trkpt lat="46.64718" lon="5.9683">
        <ele>831.1972656</ele>
        <time>2011-08-08T09:59:57Z</time>
      </trkpt>
      <trkpt lat="46.64717" lon="5.96825">
        <ele>831.6777344</ele>
        <time>2011-08-08T09:59:58Z</time>
      </trkpt>
      <trkpt lat="46.64718" lon="5.96809">
        <ele>828.3132324</ele>
        <time>2011-08-08T10:00:02Z</time>
      </trkpt>
      <trkpt lat="46.64722" lon="5.96784">
        <ele>822.545166</ele>
        <time>2011-08-08T10:00:09Z</time>
      </trkpt>
      <trkpt lat="46.64724" lon="5.96769">
        <ele>820.6225586</ele>
        <time>2011-08-08T10:00:13Z</time>
      </trkpt>
      <trkpt lat="46.64726" lon="5.96745">
        <ele>828.3132324</ele>
        <time>2011-08-08T10:00:19Z</time>
      </trkpt>
      <trkpt lat="46.64726" lon="5.96727">
        <ele>835.0424805</ele>
        <time>2011-08-08T10:00:23Z</time>
      </trkpt>
      <trkpt lat="46.64724" lon="5.9671">
        <ele>842.7329102</ele>
        <time>2011-08-08T10:00:27Z</time>
      </trkpt>
      <trkpt lat="46.6472" lon="5.96691">
        <ele>846.5783691</ele>
        <time>2011-08-08T10:00:32Z</time>
      </trkpt>
      <trkpt lat="46.64715" lon="5.96674">
        <ele>845.1362305</ele>
        <time>2011-08-08T10:00:37Z</time>
      </trkpt>
      <trkpt lat="46.64705" lon="5.96665">
        <ele>841.7714844</ele>
        <time>2011-08-08T10:00:42Z</time>
      </trkpt>
      <trkpt lat="46.64691" lon="5.96662">
        <ele>837.9262695</ele>
        <time>2011-08-08T10:00:48Z</time>
      </trkpt>
      <trkpt lat="46.64678" lon="5.96661">
        <ele>834.0810547</ele>
        <time>2011-08-08T10:00:53Z</time>
      </trkpt>
      <trkpt lat="46.64666" lon="5.96651">
        <ele>828.7939453</ele>
        <time>2011-08-08T10:00:58Z</time>
      </trkpt>
      <trkpt lat="46.64657" lon="5.96643">
        <ele>826.3903809</ele>
        <time>2011-08-08T10:01:02Z</time>
      </trkpt>
      <trkpt lat="46.64648" lon="5.96633">
        <ele>823.5065918</ele>
        <time>2011-08-08T10:01:06Z</time>
      </trkpt>
      <trkpt lat="46.64639" lon="5.96618">
        <ele>822.0644531</ele>
        <time>2011-08-08T10:01:11Z</time>
      </trkpt>
      <trkpt lat="46.64635" lon="5.96608">
        <ele>820.1418457</ele>
        <time>2011-08-08T10:01:14Z</time>
      </trkpt>
      <trkpt lat="46.64628" lon="5.96592">
        <ele>822.545166</ele>
        <time>2011-08-08T10:01:19Z</time>
      </trkpt>
      <trkpt lat="46.64618" lon="5.96576">
        <ele>830.2358398</ele>
        <time>2011-08-08T10:01:25Z</time>
      </trkpt>
      <trkpt lat="46.64613" lon="5.96559">
        <ele>834.5617676</ele>
        <time>2011-08-08T10:01:31Z</time>
      </trkpt>
      <trkpt lat="46.64607" lon="5.96544">
        <ele>835.5229492</ele>
        <time>2011-08-08T10:01:36Z</time>
      </trkpt>
      <trkpt lat="46.64602" lon="5.96527">
        <ele>836.0036621</ele>
        <time>2011-08-08T10:01:41Z</time>
      </trkpt>
      <trkpt lat="46.64596" lon="5.96512">
        <ele>837.4455566</ele>
        <time>2011-08-08T10:01:46Z</time>
      </trkpt>
      <trkpt lat="46.64589" lon="5.96495">
        <ele>840.3295898</ele>
        <time>2011-08-08T10:01:51Z</time>
      </trkpt>
      <trkpt lat="46.64576" lon="5.96481">
        <ele>846.0976563</ele>
        <time>2011-08-08T10:01:56Z</time>
      </trkpt>
      <trkpt lat="46.64568" lon="5.96472">
        <ele>849.4621582</ele>
        <time>2011-08-08T10:02:00Z</time>
      </trkpt>
      <trkpt lat="46.64558" lon="5.96461">
        <ele>849.4621582</ele>
        <time>2011-08-08T10:02:06Z</time>
      </trkpt>
      <trkpt lat="46.64548" lon="5.96454">
        <ele>848.5007324</ele>
        <time>2011-08-08T10:02:11Z</time>
      </trkpt>
      <trkpt lat="46.64539" lon="5.96445">
        <ele>847.0588379</ele>
        <time>2011-08-08T10:02:16Z</time>
      </trkpt>
      <trkpt lat="46.6453" lon="5.96436">
        <ele>846.5783691</ele>
        <time>2011-08-08T10:02:20Z</time>
      </trkpt>
      <trkpt lat="46.64523" lon="5.96422">
        <ele>846.5783691</ele>
        <time>2011-08-08T10:02:25Z</time>
      </trkpt>
      <trkpt lat="46.64517" lon="5.96408">
        <ele>846.5783691</ele>
        <time>2011-08-08T10:02:30Z</time>
      </trkpt>
      <trkpt lat="46.64509" lon="5.96388">
        <ele>845.6169434</ele>
        <time>2011-08-08T10:02:36Z</time>
      </trkpt>
      <trkpt lat="46.64505" lon="5.96374">
        <ele>844.1750488</ele>
        <time>2011-08-08T10:02:40Z</time>
      </trkpt>
      <trkpt lat="46.645" lon="5.96356">
        <ele>842.2521973</ele>
        <time>2011-08-08T10:02:45Z</time>
      </trkpt>
      <trkpt lat="46.64493" lon="5.96337">
        <ele>839.848877</ele>
        <time>2011-08-08T10:02:50Z</time>
      </trkpt>
      <trkpt lat="46.64488" lon="5.96323">
        <ele>838.8876953</ele>
        <time>2011-08-08T10:02:54Z</time>
      </trkpt>
      <trkpt lat="46.64483" lon="5.96309">
        <ele>837.4455566</ele>
        <time>2011-08-08T10:02:58Z</time>
      </trkpt>
      <trkpt lat="46.64476" lon="5.96288">
        <ele>837.9262695</ele>
        <time>2011-08-08T10:03:04Z</time>
      </trkpt>
      <trkpt lat="46.64472" lon="5.96275">
        <ele>838.4069824</ele>
        <time>2011-08-08T10:03:08Z</time>
      </trkpt>
      <trkpt lat="46.6447" lon="5.96272">
        <ele>838.4069824</ele>
        <time>2011-08-08T10:03:09Z</time>
      </trkpt>
      <trkpt lat="46.64464" lon="5.96252">
        <ele>838.8876953</ele>
        <time>2011-08-08T10:03:15Z</time>
      </trkpt>
      <trkpt lat="46.64459" lon="5.96236">
        <ele>839.3681641</ele>
        <time>2011-08-08T10:03:20Z</time>
      </trkpt>
      <trkpt lat="46.64454" lon="5.96223">
        <ele>840.3295898</ele>
        <time>2011-08-08T10:03:24Z</time>
      </trkpt>
      <trkpt lat="46.64449" lon="5.96206">
        <ele>841.7714844</ele>
        <time>2011-08-08T10:03:29Z</time>
      </trkpt>
      <trkpt lat="46.64443" lon="5.96188">
        <ele>844.1750488</ele>
        <time>2011-08-08T10:03:35Z</time>
      </trkpt>
      <trkpt lat="46.64438" lon="5.96175">
        <ele>847.0588379</ele>
        <time>2011-08-08T10:03:39Z</time>
      </trkpt>
      <trkpt lat="46.64434" lon="5.96157">
        <ele>848.9814453</ele>
        <time>2011-08-08T10:03:44Z</time>
      </trkpt>
      <trkpt lat="46.6443" lon="5.96145">
        <ele>848.0202637</ele>
        <time>2011-08-08T10:03:48Z</time>
      </trkpt>
      <trkpt lat="46.64425" lon="5.96127">
        <ele>847.0588379</ele>
        <time>2011-08-08T10:03:53Z</time>
      </trkpt>
      <trkpt lat="46.64421" lon="5.96108">
        <ele>845.1362305</ele>
        <time>2011-08-08T10:03:58Z</time>
      </trkpt>
      <trkpt lat="46.64417" lon="5.96089">
        <ele>844.1750488</ele>
        <time>2011-08-08T10:04:03Z</time>
      </trkpt>
      <trkpt lat="46.64415" lon="5.96082">
        <ele>844.1750488</ele>
        <time>2011-08-08T10:04:05Z</time>
      </trkpt>
      <trkpt lat="46.64409" lon="5.96065">
        <ele>845.1362305</ele>
        <time>2011-08-08T10:04:10Z</time>
      </trkpt>
      <trkpt lat="46.64404" lon="5.96048">
        <ele>846.5783691</ele>
        <time>2011-08-08T10:04:15Z</time>
      </trkpt>
      <trkpt lat="46.644" lon="5.96035">
        <ele>847.5395508</ele>
        <time>2011-08-08T10:04:19Z</time>
      </trkpt>
      <trkpt lat="46.64396" lon="5.96021">
        <ele>848.0202637</ele>
        <time>2011-08-08T10:04:23Z</time>
      </trkpt>
      <trkpt lat="46.64389" lon="5.96006">
        <ele>845.1362305</ele>
        <time>2011-08-08T10:04:28Z</time>
      </trkpt>
      <trkpt lat="46.64381" lon="5.95985">
        <ele>843.2133789</ele>
        <time>2011-08-08T10:04:34Z</time>
      </trkpt>
      <trkpt lat="46.64378" lon="5.95975">
        <ele>843.2133789</ele>
        <time>2011-08-08T10:04:37Z</time>
      </trkpt>
      <trkpt lat="46.64372" lon="5.95957">
        <ele>843.2133789</ele>
        <time>2011-08-08T10:04:42Z</time>
      </trkpt>
      <trkpt lat="46.64365" lon="5.95936">
        <ele>841.7714844</ele>
        <time>2011-08-08T10:04:47Z</time>
      </trkpt>
      <trkpt lat="46.64359" lon="5.95915">
        <ele>842.2521973</ele>
        <time>2011-08-08T10:04:52Z</time>
      </trkpt>
      <trkpt lat="46.64356" lon="5.95903">
        <ele>842.7329102</ele>
        <time>2011-08-08T10:04:55Z</time>
      </trkpt>
      <trkpt lat="46.64352" lon="5.95886">
        <ele>840.8100586</ele>
        <time>2011-08-08T10:04:59Z</time>
      </trkpt>
      <trkpt lat="46.64346" lon="5.95869">
        <ele>840.8100586</ele>
        <time>2011-08-08T10:05:03Z</time>
      </trkpt>
      <trkpt lat="46.64339" lon="5.95844">
        <ele>839.3681641</ele>
        <time>2011-08-08T10:05:09Z</time>
      </trkpt>
      <trkpt lat="46.64335" lon="5.9582">
        <ele>835.5229492</ele>
        <time>2011-08-08T10:05:14Z</time>
      </trkpt>
      <trkpt lat="46.64334" lon="5.95814">
        <ele>833.6003418</ele>
        <time>2011-08-08T10:05:15Z</time>
      </trkpt>
      <trkpt lat="46.64332" lon="5.95792">
        <ele>829.2744141</ele>
        <time>2011-08-08T10:05:20Z</time>
      </trkpt>
      <trkpt lat="46.64327" lon="5.95766">
        <ele>825.909668</ele>
        <time>2011-08-08T10:05:26Z</time>
      </trkpt>
      <trkpt lat="46.64321" lon="5.95739">
        <ele>823.5065918</ele>
        <time>2011-08-08T10:05:32Z</time>
      </trkpt>
      <trkpt lat="46.64318" lon="5.95725">
        <ele>822.545166</ele>
        <time>2011-08-08T10:05:36Z</time>
      </trkpt>
      <trkpt lat="46.64317" lon="5.95721">
        <ele>822.0644531</ele>
        <time>2011-08-08T10:05:37Z</time>
      </trkpt>
      <trkpt lat="46.64312" lon="5.95703">
        <ele>822.545166</ele>
        <time>2011-08-08T10:05:41Z</time>
      </trkpt>
      <trkpt lat="46.64301" lon="5.95679">
        <ele>822.545166</ele>
        <time>2011-08-08T10:05:47Z</time>
      </trkpt>
      <trkpt lat="46.64294" lon="5.95658">
        <ele>821.5837402</ele>
        <time>2011-08-08T10:05:52Z</time>
      </trkpt>
      <trkpt lat="46.64288" lon="5.95638">
        <ele>820.6225586</ele>
        <time>2011-08-08T10:05:57Z</time>
      </trkpt>
      <trkpt lat="46.64282" lon="5.95618">
        <ele>817.7385254</ele>
        <time>2011-08-08T10:06:02Z</time>
      </trkpt>
      <trkpt lat="46.64278" lon="5.95608">
        <ele>818.2192383</ele>
        <time>2011-08-08T10:06:05Z</time>
      </trkpt>
      <trkpt lat="46.64273" lon="5.95588">
        <ele>817.7385254</ele>
        <time>2011-08-08T10:06:10Z</time>
      </trkpt>
      <trkpt lat="46.64273" lon="5.95584">
        <ele>818.2192383</ele>
        <time>2011-08-08T10:06:11Z</time>
      </trkpt>
      <trkpt lat="46.64269" lon="5.95558">
        <ele>816.7773438</ele>
        <time>2011-08-08T10:06:17Z</time>
      </trkpt>
      <trkpt lat="46.64264" lon="5.95535">
        <ele>815.3354492</ele>
        <time>2011-08-08T10:06:22Z</time>
      </trkpt>
      <trkpt lat="46.6426" lon="5.95518">
        <ele>816.2966309</ele>
        <time>2011-08-08T10:06:26Z</time>
      </trkpt>
      <trkpt lat="46.64253" lon="5.95495">
        <ele>816.2966309</ele>
        <time>2011-08-08T10:06:31Z</time>
      </trkpt>
      <trkpt lat="46.64244" lon="5.95473">
        <ele>818.2192383</ele>
        <time>2011-08-08T10:06:36Z</time>
      </trkpt>
      <trkpt lat="46.64237" lon="5.95458">
        <ele>818.6999512</ele>
        <time>2011-08-08T10:06:40Z</time>
      </trkpt>
      <trkpt lat="46.6423" lon="5.95437">
        <ele>818.6999512</ele>
        <time>2011-08-08T10:06:45Z</time>
      </trkpt>
      <trkpt lat="46.64224" lon="5.95421">
        <ele>817.2580566</ele>
        <time>2011-08-08T10:06:49Z</time>
      </trkpt>
      <trkpt lat="46.64216" lon="5.95395">
        <ele>814.8547363</ele>
        <time>2011-08-08T10:06:55Z</time>
      </trkpt>
      <trkpt lat="46.64211" lon="5.95377">
        <ele>815.3354492</ele>
        <time>2011-08-08T10:06:59Z</time>
      </trkpt>
      <trkpt lat="46.64205" lon="5.95355">
        <ele>812.451416</ele>
        <time>2011-08-08T10:07:04Z</time>
      </trkpt>
      <trkpt lat="46.64204" lon="5.9535">
        <ele>811.9707031</ele>
        <time>2011-08-08T10:07:05Z</time>
      </trkpt>
      <trkpt lat="46.64196" lon="5.95328">
        <ele>809.0866699</ele>
        <time>2011-08-08T10:07:10Z</time>
      </trkpt>
      <trkpt lat="46.64195" lon="5.95324">
        <ele>807.6447754</ele>
        <time>2011-08-08T10:07:11Z</time>
      </trkpt>
      <trkpt lat="46.64192" lon="5.95303">
        <ele>801.8769531</ele>
        <time>2011-08-08T10:07:16Z</time>
      </trkpt>
      <trkpt lat="46.64189" lon="5.95287">
        <ele>800.4350586</ele>
        <time>2011-08-08T10:07:20Z</time>
      </trkpt>
      <trkpt lat="46.64186" lon="5.95286">
        <ele>798.512207</ele>
        <time>2011-08-08T10:07:24Z</time>
      </trkpt>
      <trkpt lat="46.64186" lon="5.95299">
        <ele>795.1474609</ele>
        <time>2011-08-08T10:07:27Z</time>
      </trkpt>
      <trkpt lat="46.64183" lon="5.95317">
        <ele>796.1091309</ele>
        <time>2011-08-08T10:07:31Z</time>
      </trkpt>
      <trkpt lat="46.64174" lon="5.95341">
        <ele>798.512207</ele>
        <time>2011-08-08T10:07:37Z</time>
      </trkpt>
      <trkpt lat="46.64172" lon="5.9535">
        <ele>796.5898438</ele>
        <time>2011-08-08T10:07:39Z</time>
      </trkpt>
      <trkpt lat="46.64162" lon="5.95371">
        <ele>790.3410645</ele>
        <time>2011-08-08T10:07:44Z</time>
      </trkpt>
      <trkpt lat="46.64152" lon="5.95388">
        <ele>787.9377441</ele>
        <time>2011-08-08T10:07:48Z</time>
      </trkpt>
      <trkpt lat="46.64146" lon="5.95398">
        <ele>788.418457</ele>
        <time>2011-08-08T10:07:50Z</time>
      </trkpt>
      <trkpt lat="46.64141" lon="5.9541">
        <ele>788.418457</ele>
        <time>2011-08-08T10:07:53Z</time>
      </trkpt>
      <trkpt lat="46.64138" lon="5.95423">
        <ele>786.9763184</ele>
        <time>2011-08-08T10:07:57Z</time>
      </trkpt>
      <trkpt lat="46.64129" lon="5.95441">
        <ele>786.0151367</ele>
        <time>2011-08-08T10:08:01Z</time>
      </trkpt>
      <trkpt lat="46.64126" lon="5.9545">
        <ele>785.0539551</ele>
        <time>2011-08-08T10:08:03Z</time>
      </trkpt>
      <trkpt lat="46.64123" lon="5.95461">
        <ele>783.6118164</ele>
        <time>2011-08-08T10:08:06Z</time>
      </trkpt>
      <trkpt lat="46.6411" lon="5.95478">
        <ele>783.1311035</ele>
        <time>2011-08-08T10:08:11Z</time>
      </trkpt>
      <trkpt lat="46.64098" lon="5.9549">
        <ele>781.2087402</ele>
        <time>2011-08-08T10:08:15Z</time>
      </trkpt>
      <trkpt lat="46.64088" lon="5.95501">
        <ele>776.4018555</ele>
        <time>2011-08-08T10:08:19Z</time>
      </trkpt>
      <trkpt lat="46.64082" lon="5.95506">
        <ele>774.9599609</ele>
        <time>2011-08-08T10:08:21Z</time>
      </trkpt>
      <trkpt lat="46.64072" lon="5.95512">
        <ele>771.5952148</ele>
        <time>2011-08-08T10:08:25Z</time>
      </trkpt>
      <trkpt lat="46.64058" lon="5.95519">
        <ele>769.1921387</ele>
        <time>2011-08-08T10:08:30Z</time>
      </trkpt>
      <trkpt lat="46.64055" lon="5.9552">
        <ele>768.7114258</ele>
        <time>2011-08-08T10:08:31Z</time>
      </trkpt>
      <trkpt lat="46.64041" lon="5.95532">
        <ele>765.8276367</ele>
        <time>2011-08-08T10:08:35Z</time>
      </trkpt>
      <trkpt lat="46.64035" lon="5.95551">
        <ele>763.904541</ele>
        <time>2011-08-08T10:08:39Z</time>
      </trkpt>
      <trkpt lat="46.64033" lon="5.9557">
        <ele>762.9433594</ele>
        <time>2011-08-08T10:08:43Z</time>
      </trkpt>
      <trkpt lat="46.64031" lon="5.95573">
        <ele>762.4626465</ele>
        <time>2011-08-08T10:08:44Z</time>
      </trkpt>
      <trkpt lat="46.64005" lon="5.95587">
        <ele>756.6948242</ele>
        <time>2011-08-08T10:08:51Z</time>
      </trkpt>
      <trkpt lat="46.63991" lon="5.95594">
        <ele>752.3688965</ele>
        <time>2011-08-08T10:08:55Z</time>
      </trkpt>
      <trkpt lat="46.63969" lon="5.95602">
        <ele>746.1203613</ele>
        <time>2011-08-08T10:09:01Z</time>
      </trkpt>
      <trkpt lat="46.63955" lon="5.95604">
        <ele>744.1977539</ele>
        <time>2011-08-08T10:09:05Z</time>
      </trkpt>
      <trkpt lat="46.63939" lon="5.95611">
        <ele>743.2363281</ele>
        <time>2011-08-08T10:09:10Z</time>
      </trkpt>
      <trkpt lat="46.63926" lon="5.95608">
        <ele>743.717041</ele>
        <time>2011-08-08T10:09:14Z</time>
      </trkpt>
      <trkpt lat="46.63919" lon="5.95584">
        <ele>745.1589355</ele>
        <time>2011-08-08T10:09:19Z</time>
      </trkpt>
      <trkpt lat="46.63915" lon="5.95564">
        <ele>749.0043945</ele>
        <time>2011-08-08T10:09:23Z</time>
      </trkpt>
      <trkpt lat="46.63912" lon="5.95549">
        <ele>750.927002</ele>
        <time>2011-08-08T10:09:26Z</time>
      </trkpt>
      <trkpt lat="46.63908" lon="5.95535">
        <ele>753.3303223</ele>
        <time>2011-08-08T10:09:29Z</time>
      </trkpt>
      <trkpt lat="46.63901" lon="5.95512">
        <ele>756.2141113</ele>
        <time>2011-08-08T10:09:34Z</time>
      </trkpt>
      <trkpt lat="46.63898" lon="5.95495">
        <ele>757.65625</ele>
        <time>2011-08-08T10:09:38Z</time>
      </trkpt>
      <trkpt lat="46.63892" lon="5.95471">
        <ele>756.2141113</ele>
        <time>2011-08-08T10:09:43Z</time>
      </trkpt>
      <trkpt lat="46.63889" lon="5.95452">
        <ele>754.7722168</ele>
        <time>2011-08-08T10:09:47Z</time>
      </trkpt>
      <trkpt lat="46.63883" lon="5.9543">
        <ele>753.8110352</ele>
        <time>2011-08-08T10:09:52Z</time>
      </trkpt>
      <trkpt lat="46.63879" lon="5.95412">
        <ele>753.8110352</ele>
        <time>2011-08-08T10:09:56Z</time>
      </trkpt>
      <trkpt lat="46.63874" lon="5.95387">
        <ele>753.8110352</ele>
        <time>2011-08-08T10:10:01Z</time>
      </trkpt>
      <trkpt lat="46.63867" lon="5.95364">
        <ele>752.8496094</ele>
        <time>2011-08-08T10:10:06Z</time>
      </trkpt>
      <trkpt lat="46.63866" lon="5.95345">
        <ele>752.3688965</ele>
        <time>2011-08-08T10:10:10Z</time>
      </trkpt>
      <trkpt lat="46.63863" lon="5.95323">
        <ele>753.3303223</ele>
        <time>2011-08-08T10:10:15Z</time>
      </trkpt>
      <trkpt lat="46.63859" lon="5.95307">
        <ele>754.291748</ele>
        <time>2011-08-08T10:10:19Z</time>
      </trkpt>
    </trkseg>
  </trk>
</gpx>